createdAt,value
2022-11-21T00:00:33.629Z,91.20
2022-11-21T00:01:37.357Z,91.45
2022-11-21T00:02:40.058Z,91.33
2022-11-21T00:03:43.767Z,91.54
2022-11-21T00:04:46.477Z,91.67
2022-11-21T00:05:51.306Z,91.49
2022-11-21T00:06:54.407Z,91.52
2022-11-21T00:07:58.878Z,91.76
2022-11-21T00:09:01.516Z,91.58
2022-11-21T00:10:05.629Z,91.83
2022-11-21T00:11:08.391Z,91.73
2022-11-21T00:12:13.487Z,91.74
2022-11-21T00:13:17.970Z,91.47
2022-11-21T00:14:21.948Z,91.24
2022-11-21T00:15:26.338Z,91.61
2022-11-21T00:16:30.267Z,91.72
2022-11-21T00:17:32.885Z,91.68
2022-11-21T00:18:37.079Z,91.38
2022-11-21T00:19:40.125Z,91.61
2022-11-21T00:20:44.165Z,91.48
2022-11-21T00:21:47.300Z,91.38
2022-11-21T00:22:54.120Z,91.60
2022-11-21T00:23:56.986Z,91.82
2022-11-21T00:25:00.968Z,91.45
2022-11-21T00:26:06.746Z,91.75
2022-11-21T00:27:10.736Z,91.92
2022-11-21T00:28:14.776Z,91.64
2022-11-21T00:29:18.597Z,92.04
2022-11-21T00:30:21.467Z,91.79
2022-11-21T00:31:26.227Z,91.69
2022-11-21T00:32:28.972Z,91.53
2022-11-21T00:33:32.855Z,91.70
2022-11-21T00:34:35.466Z,91.54
2022-11-21T00:35:39.186Z,91.71
2022-11-21T00:36:41.815Z,91.58
2022-11-21T00:37:45.568Z,91.79
2022-11-21T00:38:48.229Z,91.42
2022-11-21T00:39:51.988Z,91.47
2022-11-21T00:40:54.664Z,91.37
2022-11-21T00:41:58.416Z,91.25
2022-11-21T00:43:01.109Z,91.22
2022-11-21T00:44:06.647Z,91.41
2022-11-21T00:45:10.785Z,91.21
2022-11-21T00:46:14.819Z,91.59
2022-11-21T00:47:17.608Z,91.27
2022-11-21T00:48:21.399Z,91.15
2022-11-21T00:49:24.157Z,91.60
2022-11-21T00:50:27.854Z,91.46
2022-11-21T00:51:30.737Z,91.62
2022-11-21T00:52:34.636Z,91.40
2022-11-21T00:53:37.266Z,91.57
2022-11-21T00:54:41.017Z,91.39
2022-11-21T00:55:43.636Z,91.36
2022-11-21T00:56:47.307Z,91.30
2022-11-21T00:57:50.255Z,91.58
2022-11-21T00:58:54.145Z,91.67
2022-11-21T00:59:58.693Z,91.41
2022-11-21T01:01:07.466Z,91.35
2022-11-21T01:02:10.818Z,91.16
2022-11-21T01:03:14.526Z,91.23
2022-11-21T01:04:17.289Z,91.44
2022-11-21T01:05:21.065Z,91.58
2022-11-21T01:06:23.815Z,91.57
2022-11-21T01:07:27.581Z,91.75
2022-11-21T01:08:30.466Z,91.49
2022-11-21T01:09:34.298Z,91.76
2022-11-21T01:10:37.216Z,91.52
2022-11-21T01:11:41.317Z,91.77
2022-11-21T01:12:44.727Z,91.88
2022-11-21T01:13:49.095Z,91.69
2022-11-21T01:14:51.788Z,91.87
2022-11-21T01:15:57.005Z,91.50
2022-11-21T01:16:59.767Z,91.05
2022-11-21T01:18:03.752Z,91.50
2022-11-21T01:19:08.057Z,91.14
2022-11-21T01:20:11.456Z,91.17
2022-11-21T01:21:17.031Z,90.92
2022-11-21T01:22:19.736Z,90.97
2022-11-21T01:23:23.365Z,91.04
2022-11-21T01:24:26.267Z,91.15
2022-11-21T01:25:30.316Z,91.39
2022-11-21T01:26:33.318Z,91.44
2022-11-21T01:27:37.058Z,91.29
2022-11-21T01:28:40.603Z,91.39
2022-11-21T01:29:44.315Z,90.86
2022-11-21T01:30:47.148Z,90.77
2022-11-21T01:31:52.288Z,90.83
2022-11-21T01:32:54.938Z,90.95
2022-11-21T01:33:59.747Z,90.64
2022-11-21T01:35:02.637Z,90.87
2022-11-21T01:36:14.119Z,90.53
2022-11-21T01:37:16.730Z,90.53
2022-11-21T01:38:20.729Z,90.57
2022-11-21T01:39:23.676Z,90.74
2022-11-21T01:40:27.637Z,90.70
2022-11-21T01:41:33.847Z,90.77
2022-11-21T01:42:53.381Z,90.50
2022-11-21T01:43:57.054Z,90.52
2022-11-21T01:45:01.076Z,90.65
2022-11-21T01:46:10.576Z,90.27
2022-11-21T01:47:14.726Z,90.14
2022-11-21T01:48:18.519Z,89.88
2022-11-21T01:49:24.629Z,90.23
2022-11-21T01:50:27.372Z,89.91
2022-11-21T01:51:34.148Z,90.26
2022-11-21T01:52:36.781Z,89.85
2022-11-21T01:53:42.055Z,89.85
2022-11-21T01:54:46.741Z,89.79
2022-11-21T01:55:50.796Z,89.72
2022-11-21T01:56:58.447Z,89.40
2022-11-21T01:58:02.187Z,89.71
2022-11-21T01:59:07.165Z,89.34
2022-11-21T02:00:13.290Z,89.52
2022-11-21T02:01:17.414Z,89.16
2022-11-21T02:02:25.988Z,88.89
2022-11-21T02:03:30.981Z,88.92
2022-11-21T02:04:34.959Z,88.70
2022-11-21T02:05:39.815Z,88.25
2022-11-21T02:06:42.484Z,88.03
2022-11-21T02:07:48.033Z,87.82
2022-11-21T02:08:53.128Z,87.42
2022-11-21T02:10:00.287Z,86.99
2022-11-21T02:11:10.305Z,86.67
2022-11-21T02:12:18.168Z,86.46
2022-11-21T02:13:22.975Z,86.43
2022-11-21T02:14:27.857Z,86.24
2022-11-21T02:15:30.990Z,86.00
2022-11-21T02:16:35.947Z,85.95
2022-11-21T02:17:40.027Z,85.72
2022-11-21T02:18:43.807Z,85.75
2022-11-21T02:19:51.899Z,85.69
2022-11-21T02:21:01.326Z,85.67
2022-11-21T02:22:08.588Z,85.80
2022-11-21T02:23:15.696Z,85.46
2022-11-21T02:24:25.801Z,85.65
2022-11-21T02:25:31.008Z,85.63
2022-11-21T02:26:35.217Z,85.79
2022-11-21T02:27:38.018Z,85.34
2022-11-21T02:28:41.818Z,85.05
2022-11-21T02:29:45.537Z,85.06
2022-11-21T02:30:48.234Z,85.00
2022-11-21T02:31:52.740Z,84.61
2022-11-21T02:32:56.245Z,84.87
2022-11-21T02:34:00.017Z,84.77
2022-11-21T02:35:03.148Z,85.08
2022-11-21T02:36:22.148Z,84.99
2022-11-21T02:37:25.007Z,85.44
2022-11-21T02:38:32.266Z,85.62
2022-11-21T02:39:36.326Z,85.25
2022-11-21T02:40:43.718Z,85.35
2022-11-21T02:41:55.178Z,85.60
2022-11-21T02:43:02.780Z,86.04
2022-11-21T02:44:09.896Z,85.56
2022-11-21T02:45:17.397Z,85.85
2022-11-21T02:46:20.087Z,85.93
2022-11-21T02:47:24.505Z,85.40
2022-11-21T02:48:27.130Z,85.76
2022-11-21T02:49:39.747Z,85.15
2022-11-21T02:50:43.319Z,85.72
2022-11-21T02:51:47.198Z,86.10
2022-11-21T02:52:49.938Z,85.42
2022-11-21T02:53:53.671Z,85.61
2022-11-21T02:54:56.376Z,86.06
2022-11-21T02:56:01.598Z,85.91
2022-11-21T02:57:04.537Z,85.47
2022-11-21T02:58:08.523Z,85.25
2022-11-21T02:59:11.189Z,85.36
2022-11-21T03:00:15.378Z,84.83
2022-11-21T03:01:18.047Z,84.93
2022-11-21T03:02:21.945Z,85.80
2022-11-21T03:03:24.755Z,85.80
2022-11-21T03:04:29.447Z,85.90
2022-11-21T03:05:32.267Z,86.29
2022-11-21T03:06:35.936Z,86.16
2022-11-21T03:07:38.850Z,86.00
2022-11-21T03:08:42.606Z,86.32
2022-11-21T03:09:45.607Z,87.40
2022-11-21T03:10:49.289Z,87.48
2022-11-21T03:11:53.515Z,88.18
2022-11-21T03:13:01.360Z,88.05
2022-11-21T03:14:04.242Z,88.48
2022-11-21T03:15:10.659Z,88.60
2022-11-21T03:16:13.354Z,88.74
2022-11-21T03:17:17.127Z,88.92
2022-11-21T03:18:19.776Z,88.83
2022-11-21T03:19:23.511Z,89.69
2022-11-21T03:20:26.216Z,89.52
2022-11-21T03:21:30.006Z,89.81
2022-11-21T03:22:32.812Z,89.65
2022-11-21T03:23:36.496Z,89.54
2022-11-21T03:24:39.187Z,88.94
2022-11-21T03:25:42.906Z,88.99
2022-11-21T03:26:45.642Z,88.72
2022-11-21T03:27:54.175Z,88.05
2022-11-21T03:28:56.878Z,87.89
2022-11-21T03:30:00.658Z,87.79
2022-11-21T03:31:03.326Z,87.43
2022-11-21T03:32:07.238Z,87.34
2022-11-21T03:33:10.166Z,87.06
2022-11-21T03:34:13.967Z,86.79
2022-11-21T03:35:17.036Z,86.77
2022-11-21T03:36:22.338Z,86.87
2022-11-21T03:37:26.126Z,88.03
2022-11-21T03:38:31.067Z,87.95
2022-11-21T03:39:34.327Z,87.47
2022-11-21T03:40:38.428Z,87.07
2022-11-21T03:41:41.088Z,87.38
2022-11-21T03:42:45.075Z,87.78
2022-11-21T03:43:50.494Z,87.87
2022-11-21T03:44:54.385Z,87.69
2022-11-21T03:45:58.146Z,87.63
2022-11-21T03:47:03.187Z,87.02
2022-11-21T03:48:06.637Z,87.18
2022-11-21T03:49:11.250Z,87.43
2022-11-21T03:50:19.105Z,87.38
2022-11-21T03:51:23.842Z,87.25
2022-11-21T03:52:26.494Z,87.12
2022-11-21T03:53:30.239Z,87.66
2022-11-21T03:54:32.904Z,87.67
2022-11-21T03:55:39.299Z,86.84
2022-11-21T03:56:42.221Z,87.00
2022-11-21T03:57:46.008Z,87.09
2022-11-21T03:58:51.637Z,86.60
2022-11-21T03:59:55.446Z,87.00
2022-11-21T04:00:58.366Z,87.23
2022-11-21T04:02:02.269Z,88.11
2022-11-21T04:03:04.939Z,88.58
2022-11-21T04:04:08.767Z,88.40
2022-11-21T04:05:11.840Z,88.70
2022-11-21T04:06:18.296Z,88.19
2022-11-21T04:07:20.968Z,87.64
2022-11-21T04:08:24.718Z,87.66
2022-11-21T04:09:27.428Z,87.20
2022-11-21T04:10:31.126Z,87.57
2022-11-21T04:11:33.768Z,88.42
2022-11-21T04:12:37.526Z,88.01
2022-11-21T04:13:40.245Z,88.13
2022-11-21T04:14:45.371Z,87.97
2022-11-21T04:15:48.108Z,87.16
2022-11-21T04:16:51.958Z,87.08
2022-11-21T04:17:54.728Z,86.74
2022-11-21T04:18:58.575Z,86.93
2022-11-21T04:20:01.384Z,87.39
2022-11-21T04:21:07.929Z,87.10
2022-11-21T04:22:10.606Z,86.84
2022-11-21T04:23:15.116Z,86.76
2022-11-21T04:24:18.018Z,87.42
2022-11-21T04:25:21.726Z,87.24
2022-11-21T04:26:24.379Z,87.51
2022-11-21T04:27:28.153Z,88.34
2022-11-21T04:28:31.540Z,88.45
2022-11-21T04:29:35.326Z,88.12
2022-11-21T04:30:39.515Z,88.61
2022-11-21T04:31:43.434Z,88.26
2022-11-21T04:32:47.847Z,87.90
2022-11-21T04:33:51.627Z,87.83
2022-11-21T04:34:54.337Z,86.96
2022-11-21T04:35:58.119Z,87.11
2022-11-21T04:37:00.792Z,86.52
2022-11-21T04:38:04.766Z,87.13
2022-11-21T04:39:07.645Z,86.84
2022-11-21T04:40:12.727Z,87.04
2022-11-21T04:41:15.435Z,88.14
2022-11-21T04:42:19.128Z,87.99
2022-11-21T04:43:21.851Z,88.30
2022-11-21T04:44:25.788Z,87.80
2022-11-21T04:45:28.837Z,87.86
2022-11-21T04:46:34.007Z,87.18
2022-11-21T04:47:37.405Z,87.32
2022-11-21T04:48:41.178Z,87.33
2022-11-21T04:49:43.854Z,86.95
2022-11-21T04:50:47.730Z,86.98
2022-11-21T04:51:50.497Z,87.36
2022-11-21T04:52:55.278Z,87.10
2022-11-21T04:53:58.029Z,86.52
2022-11-21T04:55:01.716Z,86.33
2022-11-21T04:56:05.549Z,86.80
2022-11-21T04:57:09.339Z,86.45
2022-11-21T04:58:11.974Z,86.65
2022-11-21T04:59:15.697Z,86.68
2022-11-21T05:00:23.907Z,86.69
2022-11-21T05:01:28.303Z,86.28
2022-11-21T05:02:32.980Z,86.53
2022-11-21T05:03:37.138Z,86.19
2022-11-21T05:04:39.916Z,86.51
2022-11-21T05:05:43.668Z,86.39
2022-11-21T05:06:46.350Z,86.58
2022-11-21T05:07:50.118Z,86.46
2022-11-21T05:08:54.186Z,86.20
2022-11-21T05:09:58.107Z,86.89
2022-11-21T05:11:19.314Z,87.40
2022-11-21T05:12:40.548Z,87.98
2022-11-21T05:13:43.248Z,88.73
2022-11-21T05:14:47.037Z,88.85
2022-11-21T05:15:51.800Z,88.86
2022-11-21T05:16:55.585Z,88.37
2022-11-21T05:18:00.883Z,89.12
2022-11-21T05:19:04.834Z,88.75
2022-11-21T05:20:08.899Z,89.16
2022-11-21T05:21:12.719Z,89.69
2022-11-21T05:22:15.535Z,90.07
2022-11-21T05:23:19.278Z,89.80
2022-11-21T05:24:21.928Z,90.49
2022-11-21T05:25:25.728Z,90.47
2022-11-21T05:26:28.413Z,90.76
2022-11-21T05:27:32.257Z,90.90
2022-11-21T05:28:34.960Z,90.62
2022-11-21T05:29:38.727Z,90.68
2022-11-21T05:30:41.317Z,90.99
2022-11-21T05:31:45.099Z,90.86
2022-11-21T05:32:47.768Z,91.10
2022-11-21T05:33:52.979Z,91.47
2022-11-21T05:34:55.697Z,90.98
2022-11-21T05:35:59.427Z,91.56
2022-11-21T05:37:02.195Z,91.17
2022-11-21T05:38:05.975Z,91.16
2022-11-21T05:39:08.649Z,91.27
2022-11-21T05:40:13.190Z,91.60
2022-11-21T05:41:16.057Z,91.10
2022-11-21T05:42:41.100Z,91.59
2022-11-21T05:43:46.573Z,91.06
2022-11-21T05:44:49.254Z,91.57
2022-11-21T05:45:53.219Z,91.59
2022-11-21T05:46:55.963Z,91.63
2022-11-21T05:47:59.927Z,91.37
2022-11-21T05:49:05.237Z,91.59
2022-11-21T05:50:08.876Z,91.76
2022-11-21T05:51:13.235Z,91.29
2022-11-21T05:52:15.900Z,91.96
2022-11-21T05:53:19.823Z,91.60
2022-11-21T05:54:22.440Z,91.45
2022-11-21T05:55:26.350Z,92.09
2022-11-21T05:56:30.107Z,91.60
2022-11-21T05:57:32.777Z,92.14
2022-11-21T05:58:36.626Z,91.89
2022-11-21T05:59:39.316Z,92.00
2022-11-21T06:00:43.288Z,91.49
2022-11-21T06:02:04.118Z,91.64
2022-11-21T06:03:25.366Z,91.81
2022-11-21T06:04:30.798Z,91.45
2022-11-21T06:05:33.599Z,91.25
2022-11-21T06:06:37.590Z,91.23
2022-11-21T06:07:40.342Z,90.79
2022-11-21T06:08:45.456Z,90.14
2022-11-21T06:09:48.098Z,89.72
2022-11-21T06:10:51.856Z,89.17
2022-11-21T06:11:55.568Z,89.45
2022-11-21T06:13:00.548Z,89.39
2022-11-21T06:14:04.309Z,89.59
2022-11-21T06:15:08.049Z,90.00
2022-11-21T06:16:14.152Z,89.20
2022-11-21T06:17:16.881Z,89.22
2022-11-21T06:18:20.785Z,90.12
2022-11-21T06:19:24.527Z,90.08
2022-11-21T06:20:28.695Z,89.56
2022-11-21T06:21:34.427Z,90.02
2022-11-21T06:22:37.266Z,90.00
2022-11-21T06:23:41.461Z,89.70
2022-11-21T06:24:44.136Z,89.51
2022-11-21T06:25:48.065Z,89.74
2022-11-21T06:26:50.892Z,89.80
2022-11-21T06:27:54.676Z,89.84
2022-11-21T06:28:58.457Z,89.61
2022-11-21T06:30:01.330Z,89.14
2022-11-21T06:31:05.807Z,89.05
2022-11-21T06:32:08.465Z,89.00
2022-11-21T06:33:12.466Z,88.87
2022-11-21T06:34:15.307Z,88.80
2022-11-21T06:35:19.065Z,89.05
2022-11-21T06:36:24.266Z,89.22
2022-11-21T06:37:26.910Z,89.34
2022-11-21T06:38:30.746Z,88.66
2022-11-21T06:39:33.497Z,89.32
2022-11-21T06:40:37.260Z,89.14
2022-11-21T06:41:39.951Z,89.07
2022-11-21T06:42:43.854Z,88.97
2022-11-21T06:43:47.939Z,89.05
2022-11-21T06:44:50.568Z,89.17
2022-11-21T06:45:57.285Z,88.73
2022-11-21T06:47:00.036Z,89.14
2022-11-21T06:48:04.589Z,89.87
2022-11-21T06:49:07.305Z,89.48
2022-11-21T06:50:12.020Z,89.80
2022-11-21T06:51:19.254Z,89.64
2022-11-21T06:52:23.310Z,90.10
2022-11-21T06:53:27.049Z,90.19
2022-11-21T06:54:30.348Z,90.40
2022-11-21T06:55:34.449Z,89.74
2022-11-21T06:56:37.187Z,90.08
2022-11-21T06:57:40.988Z,89.80
2022-11-21T06:58:43.945Z,90.23
2022-11-21T06:59:47.676Z,89.74
2022-11-21T07:00:50.473Z,89.77
2022-11-21T07:01:54.246Z,89.54
2022-11-21T07:03:03.195Z,89.97
2022-11-21T07:04:07.251Z,89.80
2022-11-21T07:05:10.373Z,89.76
2022-11-21T07:06:14.136Z,89.99
2022-11-21T07:07:16.874Z,90.03
2022-11-21T07:08:22.208Z,90.40
2022-11-21T07:09:33.346Z,90.92
2022-11-21T07:10:37.777Z,90.61
2022-11-21T07:11:40.477Z,90.30
2022-11-21T07:13:01.249Z,90.87
2022-11-21T07:14:08.999Z,90.90
2022-11-21T07:15:12.227Z,91.28
2022-11-21T07:16:15.992Z,91.74
2022-11-21T07:17:18.646Z,92.46
2022-11-21T07:18:23.305Z,92.17
2022-11-21T07:19:26.227Z,92.55
2022-11-21T07:20:30.646Z,92.63
2022-11-21T07:21:33.496Z,93.01
2022-11-21T07:22:37.245Z,93.08
2022-11-21T07:23:42.418Z,93.39
2022-11-21T07:24:45.068Z,93.73
2022-11-21T07:25:48.749Z,93.54
2022-11-21T07:26:52.495Z,93.35
2022-11-21T07:27:55.300Z,93.47
2022-11-21T07:29:00.685Z,93.58
2022-11-21T07:30:03.438Z,93.56
2022-11-21T07:31:12.942Z,93.44
2022-11-21T07:32:17.347Z,93.73
2022-11-21T07:33:19.987Z,93.64
2022-11-21T07:34:23.746Z,93.74
2022-11-21T07:35:26.519Z,93.87
2022-11-21T07:36:32.522Z,93.86
2022-11-21T07:37:38.545Z,93.94
2022-11-21T07:38:44.258Z,93.83
2022-11-21T07:39:46.897Z,94.18
2022-11-21T07:40:50.610Z,94.29
2022-11-21T07:41:54.244Z,94.46
2022-11-21T07:43:04.410Z,94.49
2022-11-21T07:44:11.794Z,94.70
2022-11-21T07:45:14.665Z,94.65
2022-11-21T07:46:18.367Z,94.71
2022-11-21T07:47:21.179Z,94.64
2022-11-21T07:48:25.016Z,94.76
2022-11-21T07:49:28.926Z,95.02
2022-11-21T07:50:31.893Z,95.00
2022-11-21T07:51:35.668Z,95.04
2022-11-21T07:52:38.785Z,95.11
2022-11-21T07:53:44.036Z,95.17
2022-11-21T07:54:46.776Z,95.12
2022-11-21T07:55:50.734Z,95.19
2022-11-21T07:56:53.569Z,95.08
2022-11-21T07:58:01.109Z,95.32
2022-11-21T07:59:04.796Z,95.48
2022-11-21T08:00:08.936Z,95.61
2022-11-21T08:01:12.735Z,95.61
2022-11-21T08:02:20.716Z,95.86
2022-11-21T08:03:25.535Z,95.78
2022-11-21T08:04:29.290Z,95.85
2022-11-21T08:05:33.086Z,96.23
2022-11-21T08:06:36.306Z,96.08
2022-11-21T08:07:40.097Z,96.19
2022-11-21T08:08:45.656Z,95.97
2022-11-21T08:09:48.539Z,95.83
2022-11-21T08:10:52.198Z,95.96
2022-11-21T08:11:55.059Z,95.91
2022-11-21T08:12:58.853Z,95.94
2022-11-21T08:14:02.682Z,96.07
2022-11-21T08:15:07.241Z,96.13
2022-11-21T08:16:10.961Z,96.09
2022-11-21T08:17:15.182Z,96.27
2022-11-21T08:18:20.248Z,96.33
2022-11-21T08:19:23.899Z,96.07
2022-11-21T08:20:26.675Z,96.17
2022-11-21T08:21:31.689Z,96.64
2022-11-21T08:22:40.077Z,96.45
2022-11-21T08:23:45.187Z,95.85
2022-11-21T08:24:48.920Z,95.91
2022-11-21T08:25:52.731Z,96.37
2022-11-21T08:26:56.438Z,96.09
2022-11-21T08:27:59.727Z,96.35
2022-11-21T08:29:03.413Z,96.16
2022-11-21T08:30:07.746Z,96.38
2022-11-21T08:31:11.619Z,95.93
2022-11-21T08:32:15.470Z,96.06
2022-11-21T08:33:19.132Z,96.06
2022-11-21T08:34:22.893Z,95.47
2022-11-21T08:35:25.810Z,95.40
2022-11-21T08:36:29.572Z,95.31
2022-11-21T08:37:32.250Z,95.41
2022-11-21T08:38:35.936Z,95.19
2022-11-21T08:39:40.966Z,95.69
2022-11-21T08:40:43.689Z,95.48
2022-11-21T08:42:06.022Z,95.35
2022-11-21T08:43:11.246Z,95.52
2022-11-21T08:44:25.828Z,95.92
2022-11-21T08:45:29.936Z,95.93
2022-11-21T08:46:33.949Z,96.03
2022-11-21T08:47:37.687Z,96.13
2022-11-21T08:48:40.324Z,96.55
2022-11-21T08:49:44.005Z,96.45
2022-11-21T08:50:46.744Z,96.59
2022-11-21T08:51:50.789Z,95.91
2022-11-21T08:52:54.617Z,96.26
2022-11-21T08:53:57.246Z,96.11
2022-11-21T08:55:02.472Z,95.72
2022-11-21T08:56:05.353Z,95.53
2022-11-21T08:57:09.010Z,95.72
2022-11-21T08:58:12.700Z,95.58
2022-11-21T08:59:16.565Z,95.51
2022-11-21T09:00:20.658Z,95.69
2022-11-21T09:01:23.804Z,95.67
2022-11-21T09:02:27.655Z,95.93
2022-11-21T09:03:31.548Z,95.69
2022-11-21T09:04:35.438Z,95.48
2022-11-21T09:05:38.107Z,95.47
2022-11-21T09:06:41.873Z,95.71
2022-11-21T09:07:44.821Z,95.60
2022-11-21T09:08:48.617Z,95.44
2022-11-21T09:09:52.307Z,95.94
2022-11-21T09:10:57.460Z,95.76
2022-11-21T09:12:02.908Z,95.88
2022-11-21T09:13:05.641Z,96.14
2022-11-21T09:14:27.167Z,95.88
2022-11-21T09:15:48.529Z,95.69
2022-11-21T09:17:09.948Z,95.41
2022-11-21T09:18:13.841Z,95.29
2022-11-21T09:19:16.757Z,95.77
2022-11-21T09:20:20.549Z,95.89
2022-11-21T09:21:24.399Z,95.22
2022-11-21T09:22:28.108Z,95.71
2022-11-21T09:23:31.877Z,95.82
2022-11-21T09:24:34.573Z,95.35
2022-11-21T09:25:38.297Z,95.33
2022-11-21T09:26:43.438Z,95.06
2022-11-21T09:27:47.154Z,95.19
2022-11-21T09:28:49.832Z,94.97
2022-11-21T09:29:54.373Z,95.04
2022-11-21T09:30:59.146Z,95.08
2022-11-21T09:32:01.945Z,94.75
2022-11-21T09:33:06.907Z,94.64
2022-11-21T09:34:11.050Z,94.50
2022-11-21T09:35:13.860Z,94.73
2022-11-21T09:36:17.587Z,94.40
2022-11-21T09:37:20.301Z,94.33
2022-11-21T09:38:24.478Z,94.52
2022-11-21T09:39:28.521Z,93.99
2022-11-21T09:40:31.670Z,93.93
2022-11-21T09:41:54.820Z,94.00
2022-11-21T09:43:07.927Z,94.50
2022-11-21T09:44:16.687Z,94.00
2022-11-21T09:45:24.035Z,93.80
2022-11-21T09:46:28.590Z,93.77
2022-11-21T09:47:33.701Z,93.48
2022-11-21T09:48:44.594Z,93.43
2022-11-21T09:49:54.359Z,93.46
2022-11-21T09:51:01.477Z,93.33
2022-11-21T09:52:05.655Z,93.14
2022-11-21T09:53:14.449Z,93.30
2022-11-21T09:54:20.860Z,92.99
2022-11-21T09:55:29.983Z,92.75
2022-11-21T09:56:38.130Z,92.75
2022-11-21T09:57:41.919Z,92.46
2022-11-21T09:58:50.207Z,92.22
2022-11-21T09:59:53.411Z,91.62
2022-11-21T10:00:58.530Z,91.68
2022-11-21T10:02:02.620Z,91.30
2022-11-21T10:03:05.447Z,91.40
2022-11-21T10:04:09.249Z,91.54
2022-11-21T10:05:15.448Z,91.02
2022-11-21T10:06:21.572Z,91.24
2022-11-21T10:07:30.755Z,91.46
2022-11-21T10:08:42.143Z,91.26
2022-11-21T10:10:01.378Z,90.62
2022-11-21T10:11:19.384Z,90.69
2022-11-21T10:12:38.081Z,90.51
2022-11-21T10:13:54.649Z,90.66
2022-11-21T10:15:02.076Z,90.36
2022-11-21T10:16:10.987Z,89.86
2022-11-21T10:17:22.037Z,90.02
2022-11-21T10:18:39.920Z,89.25
2022-11-21T10:19:59.247Z,89.10
2022-11-21T10:21:08.968Z,89.47
2022-11-21T10:22:29.941Z,89.10
2022-11-21T10:24:00.936Z,89.59
2022-11-21T10:25:12.675Z,89.53
2022-11-21T10:26:17.419Z,89.45
2022-11-21T10:27:28.527Z,89.35
2022-11-21T10:28:35.949Z,89.65
2022-11-21T10:29:46.619Z,89.29
2022-11-21T10:30:52.140Z,89.36
2022-11-21T10:31:56.813Z,89.44
2022-11-21T10:33:03.783Z,89.40
2022-11-21T10:34:11.329Z,89.30
2022-11-21T10:35:17.173Z,89.47
2022-11-21T10:36:27.494Z,89.57
2022-11-21T10:37:37.917Z,89.59
2022-11-21T10:38:42.173Z,89.42
2022-11-21T10:39:48.309Z,89.00
2022-11-21T10:40:52.945Z,88.73
2022-11-21T10:42:00.749Z,88.76
2022-11-21T10:43:21.917Z,88.87
2022-11-21T10:44:45.647Z,89.17
2022-11-21T10:45:51.028Z,88.92
2022-11-21T10:46:56.772Z,88.92
2022-11-21T10:48:05.171Z,88.78
2022-11-21T10:49:13.945Z,89.06
2022-11-21T10:50:36.538Z,88.62
2022-11-21T10:51:47.182Z,88.27
2022-11-21T10:52:52.777Z,88.19
2022-11-21T10:54:25.144Z,88.31
2022-11-21T10:55:29.326Z,88.10
2022-11-21T10:56:34.015Z,88.41
2022-11-21T10:57:48.460Z,88.44
2022-11-21T10:58:53.990Z,88.57
2022-11-21T11:00:00.783Z,88.40
2022-11-21T11:01:06.126Z,88.41
2022-11-21T11:02:25.022Z,87.85
2022-11-21T11:03:34.718Z,88.10
2022-11-21T11:04:47.420Z,87.61
2022-11-21T11:05:57.535Z,88.03
2022-11-21T11:07:21.773Z,87.64
2022-11-21T11:08:27.774Z,87.54
2022-11-21T11:09:32.922Z,88.06
2022-11-21T11:10:38.494Z,87.38
2022-11-21T11:11:41.488Z,87.38
2022-11-21T11:13:05.308Z,87.23
2022-11-21T11:14:32.489Z,86.34
2022-11-21T11:15:36.779Z,86.78
2022-11-21T11:16:45.904Z,86.55
2022-11-21T11:17:54.588Z,86.82
2022-11-21T11:19:00.728Z,86.16
2022-11-21T11:20:08.032Z,86.21
2022-11-21T11:21:14.401Z,86.44
2022-11-21T11:22:29.292Z,85.91
2022-11-21T11:23:31.998Z,86.21
2022-11-21T11:24:35.796Z,86.08
2022-11-21T11:25:38.987Z,85.63
2022-11-21T11:26:52.688Z,85.79
2022-11-21T11:27:56.370Z,85.25
2022-11-21T11:29:10.418Z,85.43
2022-11-21T11:30:15.864Z,85.25
2022-11-21T11:31:19.705Z,85.34
2022-11-21T11:32:25.398Z,85.18
2022-11-21T11:33:33.287Z,85.30
2022-11-21T11:34:41.571Z,84.77
2022-11-21T11:35:44.380Z,85.07
2022-11-21T11:36:56.560Z,84.76
2022-11-21T11:38:02.198Z,84.19
2022-11-21T11:39:15.569Z,84.29
2022-11-21T11:40:23.437Z,84.77
2022-11-21T11:42:03.017Z,85.14
2022-11-21T11:43:42.540Z,84.72
2022-11-21T11:45:13.488Z,84.65
2022-11-21T11:46:44.799Z,85.10
2022-11-21T11:47:54.854Z,84.76
2022-11-21T11:49:19.614Z,84.82
2022-11-21T11:50:26.466Z,85.08
2022-11-21T11:51:34.689Z,85.13
2022-11-21T11:52:41.608Z,85.42
2022-11-21T11:53:48.214Z,85.47
2022-11-21T11:54:56.519Z,85.23
2022-11-21T11:56:02.649Z,85.39
2022-11-21T11:57:06.898Z,85.82
2022-11-21T11:58:18.922Z,85.59
2022-11-21T11:59:24.675Z,85.16
2022-11-21T12:00:33.996Z,85.56
2022-11-21T12:01:42.625Z,85.08
2022-11-21T12:02:54.446Z,85.49
2022-11-21T12:04:00.918Z,85.47
2022-11-21T12:05:08.374Z,85.01
2022-11-21T12:06:16.978Z,85.33
2022-11-21T12:08:51.658Z,85.12
2022-11-21T12:10:00.483Z,85.15
2022-11-21T12:11:30.251Z,85.21
2022-11-21T12:12:37.827Z,85.04
2022-11-21T12:13:40.837Z,85.24
2022-11-21T12:15:15.717Z,85.26
2022-11-21T12:16:20.041Z,85.15
2022-11-21T12:17:27.621Z,85.05
2022-11-21T12:18:38.699Z,85.31
2022-11-21T12:19:42.638Z,84.88
2022-11-21T12:20:51.498Z,84.91
2022-11-21T12:21:55.306Z,85.30
2022-11-21T12:22:59.247Z,85.36
2022-11-21T12:24:04.471Z,85.34
2022-11-21T12:25:11.919Z,84.74
2022-11-21T12:26:37.763Z,85.27
2022-11-21T12:27:42.619Z,84.74
2022-11-21T12:28:57.226Z,84.97
2022-11-21T12:30:22.737Z,84.62
2022-11-21T12:31:30.479Z,84.91
2022-11-21T12:32:43.040Z,84.56
2022-11-21T12:33:58.429Z,84.70
2022-11-21T12:35:19.848Z,85.09
2022-11-21T12:36:29.960Z,85.20
2022-11-21T12:37:39.656Z,85.03
2022-11-21T12:39:10.571Z,84.54
2022-11-21T12:40:28.726Z,85.09
2022-11-21T12:41:54.590Z,84.96
2022-11-21T12:43:07.387Z,84.50
2022-11-21T12:44:18.789Z,84.27
2022-11-21T12:45:33.424Z,84.93
2022-11-21T12:46:43.620Z,84.82
2022-11-21T12:48:31.110Z,84.81
2022-11-21T12:49:57.612Z,84.69
2022-11-21T12:51:58.171Z,84.34
2022-11-21T12:53:33.778Z,84.85
2022-11-21T12:55:02.302Z,84.48
2022-11-21T12:56:11.190Z,84.32
2022-11-21T12:57:20.039Z,84.89
2022-11-21T12:58:29.268Z,84.38
2022-11-21T12:59:35.244Z,84.51
2022-11-21T13:00:48.190Z,84.49
2022-11-21T13:01:55.854Z,84.50
2022-11-21T13:03:36.480Z,83.71
2022-11-21T13:04:43.159Z,84.34
2022-11-21T13:05:48.597Z,84.17
2022-11-21T13:06:53.040Z,83.87
2022-11-21T13:08:02.070Z,84.12
2022-11-21T13:09:08.939Z,83.99
2022-11-21T13:10:14.295Z,84.64
2022-11-21T13:11:48.319Z,84.52
2022-11-21T13:12:55.869Z,83.85
2022-11-21T13:14:03.744Z,83.00
2022-11-21T13:15:17.788Z,82.42
2022-11-21T13:16:37.035Z,82.02
2022-11-21T13:17:46.218Z,82.31
2022-11-21T13:18:50.524Z,82.59
2022-11-21T13:19:57.935Z,82.52
2022-11-21T13:21:01.810Z,82.40
2022-11-21T13:22:04.479Z,82.15
2022-11-21T13:23:39.810Z,81.84
2022-11-21T13:24:56.668Z,81.70
2022-11-21T13:26:00.464Z,82.28
2022-11-21T13:27:03.320Z,82.00
2022-11-21T13:28:39.917Z,82.28
2022-11-21T13:30:22.399Z,81.74
2022-11-21T13:31:31.797Z,82.32
2022-11-21T13:32:39.363Z,82.16
2022-11-21T13:33:51.808Z,81.98
2022-11-21T13:34:55.819Z,82.34
2022-11-21T13:35:59.215Z,82.40
2022-11-21T13:37:03.902Z,82.49
2022-11-21T13:38:07.629Z,82.52
2022-11-21T13:39:37.648Z,82.50
2022-11-21T13:41:02.476Z,82.27
2022-11-21T13:42:33.548Z,82.59
2022-11-21T13:43:38.069Z,82.31
2022-11-21T13:44:41.481Z,82.35
2022-11-21T13:45:48.573Z,82.82
2022-11-21T13:47:02.419Z,82.86
2022-11-21T13:48:23.677Z,82.46
2022-11-21T13:49:32.107Z,82.49
2022-11-21T13:50:53.970Z,83.13
2022-11-21T13:51:58.224Z,83.06
2022-11-21T13:53:09.634Z,83.29
2022-11-21T13:55:01.131Z,83.55
2022-11-21T13:56:11.879Z,82.94
2022-11-21T13:57:28.375Z,83.72
2022-11-21T13:58:43.902Z,83.74
2022-11-21T14:00:01.700Z,83.43
2022-11-21T14:01:40.257Z,83.91
2022-11-21T14:03:14.111Z,83.82
2022-11-21T14:04:49.775Z,84.08
2022-11-21T14:06:12.222Z,83.97
2022-11-21T14:07:24.959Z,84.27
2022-11-21T14:08:30.198Z,83.88
2022-11-21T14:09:38.733Z,83.76
2022-11-21T14:10:43.203Z,84.32
2022-11-21T14:11:50.158Z,84.28
2022-11-21T14:12:55.620Z,83.59
2022-11-21T14:13:58.337Z,84.00
2022-11-21T14:15:24.110Z,83.93
2022-11-21T14:16:32.933Z,83.84
2022-11-21T14:17:44.747Z,83.76
2022-11-21T14:18:48.703Z,84.18
2022-11-21T14:19:53.322Z,83.80
2022-11-21T14:21:00.047Z,84.18
2022-11-21T14:22:02.841Z,84.14